Time;durP1;ratioP1;P1;durP2;ratioP2;P2;SDS_P1;SDS_P2;PMS_P1;PMS_P2;Temp;Humidity;BMP_temperature;BMP_pressure;BME280_temperature;BME280_humidity;BME280_pressure;Samples;Min_cycle;Max_cycle;Signal;HPM_P1;HPM_P2
2022/03/10 00:05:03;;;;;;;22.17;12.10;;;;;;;;;;5192506;27;20507;-80
2022/03/10 00:07:29;;;;;;;20.48;12.50;;;;;;;;;;5170136;27;20242;-79
2022/03/10 00:09:55;;;;;;;22.02;12.98;;;;;;;;;;5151415;27;20262;-80
2022/03/10 00:12:21;;;;;;;21.10;11.18;;;;;;;;;;5170260;27;20185;-80
2022/03/10 00:14:47;;;;;;;18.80;11.60;;;;;;;;;;5097270;28;20200;-79
2022/03/10 00:17:13;;;;;;;15.77;9.73;;;;;;;;;;5014706;28;20487;-79
2022/03/10 00:19:39;;;;;;;19.10;12.20;;;;;;;;;;4898239;29;20442;-80
2022/03/10 00:22:06;;;;;;;19.83;12.45;;;;;;;;;;4897368;29;20451;-80
2022/03/10 00:24:32;;;;;;;18.88;12.13;;;;;;;;;;4814555;29;20677;-79
2022/03/10 00:28:58;;;;;;;21.50;12.15;;;;;;;;;;5192366;27;20496;-79
2022/03/10 00:31:24;;;;;;;18.85;11.73;;;;;;;;;;5187612;27;20192;-78
2022/03/10 00:33:50;;;;;;;22.77;12.23;;;;;;;;;;5184710;27;20185;-79
2022/03/10 00:36:16;;;;;;;21.63;10.55;;;;;;;;;;5169603;27;20776;-78
2022/03/10 00:38:43;;;;;;;20.35;12.00;;;;;;;;;;5140549;27;20186;-79
2022/03/10 00:41:09;;;;;;;26.75;12.07;;;;;;;;;;5142318;27;20185;-78
2022/03/10 00:43:35;;;;;;;21.42;11.27;;;;;;;;;;5145049;27;20190;-79
2022/03/10 00:46:02;;;;;;;18.48;11.50;;;;;;;;;;5078515;27;20249;-79
2022/03/10 00:48:28;;;;;;;19.10;11.27;;;;;;;;;;4985780;28;20285;-79
2022/03/10 00:53:39;;;;;;;19.73;11.80;;;;;;;;;;5192893;27;21011;-78
2022/03/10 00:56:05;;;;;;;20.55;12.43;;;;;;;;;;5162821;27;20214;-78
2022/03/10 00:58:31;;;;;;;21.30;12.10;;;;;;;;;;5170933;27;20193;-79
2022/03/10 01:00:57;;;;;;;21.20;12.43;;;;;;;;;;5170289;27;20192;-78
2022/03/10 01:03:23;;;;;;;23.43;12.47;;;;;;;;;;5100257;27;20272;-79
2022/03/10 01:05:49;;;;;;;20.92;12.00;;;;;;;;;;5041645;28;20451;-79
2022/03/10 01:08:15;;;;;;;18.40;11.73;;;;;;;;;;5097210;28;20191;-78
2022/03/10 01:10:41;;;;;;;21.17;13.52;;;;;;;;;;5012354;28;20231;-79
2022/03/10 01:13:18;;;;;;;23.20;12.38;;;;;;;;;;4970557;28;20231;-78
2022/03/10 01:18:23;;;;;;;19.90;12.35;;;;;;;;;;5175786;27;20505;-79
2022/03/10 01:20:48;;;;;;;20.73;12.47;;;;;;;;;;5170676;27;20548;-79
2022/03/10 01:23:14;;;;;;;20.90;12.03;;;;;;;;;;5191995;27;20501;-79
2022/03/10 01:25:40;;;;;;;23.40;13.07;;;;;;;;;;5189238;27;20429;-78
2022/03/10 01:28:07;;;;;;;23.27;13.07;;;;;;;;;;5101792;27;20482;-79
2022/03/10 01:30:32;;;;;;;23.73;12.75;;;;;;;;;;5081652;28;20193;-79
2022/03/10 01:32:59;;;;;;;17.70;11.53;;;;;;;;;;5088554;28;20270;-79
2022/03/10 01:35:25;;;;;;;23.08;13.90;;;;;;;;;;5068842;28;20433;-78
2022/03/10 01:37:52;;;;;;;19.88;10.85;;;;;;;;;;4995083;28;20223;-78
2022/03/10 01:42:57;;;;;;;22.52;13.00;;;;;;;;;;5192756;27;21038;-79
2022/03/10 01:45:23;;;;;;;20.70;11.83;;;;;;;;;;5186670;27;20201;-79
2022/03/10 01:47:49;;;;;;;25.77;13.63;;;;;;;;;;5171533;27;20835;-79
2022/03/10 01:50:15;;;;;;;21.40;13.43;;;;;;;;;;5170568;27;20525;-79
2022/03/10 01:52:42;;;;;;;20.50;12.25;;;;;;;;;;5109721;27;20482;-79
2022/03/10 01:55:09;;;;;;;25.70;13.60;;;;;;;;;;5079843;28;20211;-80
2022/03/10 01:57:35;;;;;;;19.08;13.05;;;;;;;;;;5103870;28;20207;-79
2022/03/10 02:00:02;;;;;;;20.77;13.20;;;;;;;;;;5029431;28;20204;-79
2022/03/10 02:02:28;;;;;;;22.73;14.80;;;;;;;;;;4961943;28;20599;-80
2022/03/10 02:10:17;;;;;;;29.02;14.45;;;;;;;;;;5147787;27;20334;-77
2022/03/10 02:12:53;;;;;;;24.20;13.38;;;;;;;;;;5155803;27;20184;-79
2022/03/10 02:18:05;;;;;;;25.23;13.07;;;;;;;;;;5112816;27;20206;-77
2022/03/10 02:20:31;;;;;;;25.10;12.60;;;;;;;;;;5059617;28;20204;-78
2022/03/10 02:22:57;;;;;;;24.40;14.00;;;;;;;;;;5023157;28;20195;-79
2022/03/10 02:25:24;;;;;;;24.63;14.10;;;;;;;;;;5001860;28;20846;-78
2022/03/10 02:27:51;;;;;;;32.03;13.52;;;;;;;;;;4977832;28;20215;-79
2022/03/10 02:31:51;;;;;;;23.90;13.63;;;;;;;;;;5180321;27;20479;-80
2022/03/10 02:34:17;;;;;;;32.00;14.30;;;;;;;;;;5186405;27;20200;-79
2022/03/10 02:36:43;;;;;;;23.07;13.83;;;;;;;;;;5180985;27;20443;-79
2022/03/10 02:39:09;;;;;;;21.95;13.18;;;;;;;;;;5151957;27;20426;-79
2022/03/10 02:41:35;;;;;;;20.10;12.30;;;;;;;;;;5120129;27;20191;-78
2022/03/10 02:44:01;;;;;;;22.60;13.40;;;;;;;;;;5112461;28;20429;-79
2022/03/10 02:46:27;;;;;;;27.07;14.30;;;;;;;;;;5107934;28;20442;-80
2022/03/10 02:48:53;;;;;;;28.73;14.03;;;;;;;;;;5121738;28;20836;-79
2022/03/10 02:51:19;;;;;;;19.63;12.60;;;;;;;;;;5076065;28;20480;-80
2022/03/10 02:56:35;;;;;;;23.90;12.90;;;;;;;;;;5182984;27;21006;-79
2022/03/10 02:59:02;;;;;;;20.58;12.25;;;;;;;;;;5187736;27;20189;-79
2022/03/10 03:01:28;;;;;;;24.77;12.65;;;;;;;;;;5191898;27;20669;-79
2022/03/10 03:03:54;;;;;;;23.20;11.38;;;;;;;;;;5189934;27;20267;-79
2022/03/10 03:06:21;;;;;;;23.38;11.70;;;;;;;;;;5174188;27;20214;-79
2022/03/10 03:08:47;;;;;;;24.73;13.43;;;;;;;;;;5136531;27;20193;-80
2022/03/10 03:11:13;;;;;;;20.42;11.68;;;;;;;;;;5172991;27;20525;-79
2022/03/10 03:13:39;;;;;;;19.60;11.67;;;;;;;;;;5171383;27;20209;-79
2022/03/10 03:16:05;;;;;;;16.80;10.77;;;;;;;;;;5091703;27;20478;-78
2022/03/10 03:21:45;;;;;;;20.88;11.88;;;;;;;;;;5192715;27;21019;-80
2022/03/10 03:24:11;;;;;;;23.15;11.85;;;;;;;;;;5187732;27;20545;-79
2022/03/10 03:26:37;;;;;;;22.70;13.40;;;;;;;;;;5181760;27;20291;-79
2022/03/10 03:29:03;;;;;;;20.05;12.38;;;;;;;;;;5170197;27;20415;-80
2022/03/10 03:31:29;;;;;;;26.20;13.13;;;;;;;;;;5131229;27;20537;-79
2022/03/10 03:33:55;;;;;;;21.93;13.07;;;;;;;;;;5089726;28;20414;-79
2022/03/10 03:36:21;;;;;;;22.95;12.65;;;;;;;;;;5032147;28;20440;-79
2022/03/10 03:38:47;;;;;;;21.67;13.18;;;;;;;;;;5043513;28;20212;-80
2022/03/10 03:41:13;;;;;;;24.23;12.15;;;;;;;;;;4961253;28;20222;-77
2022/03/10 03:46:16;;;;;;;26.83;13.63;;;;;;;;;;5175766;27;20513;-79
2022/03/10 03:48:42;;;;;;;23.92;13.35;;;;;;;;;;5168505;27;20193;-80
2022/03/10 03:51:08;;;;;;;26.63;13.33;;;;;;;;;;5191847;27;20524;-78
2022/03/10 03:53:34;;;;;;;23.60;13.03;;;;;;;;;;5194333;27;20508;-78
2022/03/10 03:56:00;;;;;;;28.98;13.60;;;;;;;;;;5148846;27;20453;-77
2022/03/10 03:58:26;;;;;;;22.17;12.77;;;;;;;;;;5164905;27;20197;-79
2022/03/10 04:00:52;;;;;;;25.13;12.70;;;;;;;;;;5108311;27;20449;-79
2022/03/10 04:03:18;;;;;;;23.67;13.57;;;;;;;;;;4895907;28;20518;-79
2022/03/10 04:05:44;;;;;;;23.73;13.98;;;;;;;;;;4842501;29;20769;-79
2022/03/10 04:09:58;;;;;;;26.17;11.55;;;;;;;;;;5192820;27;20476;-79
2022/03/10 04:12:24;;;;;;;23.70;13.45;;;;;;;;;;5187514;27;20188;-79
2022/03/10 04:14:50;;;;;;;25.90;14.80;;;;;;;;;;5173351;27;20257;-79
2022/03/10 04:17:16;;;;;;;25.33;14.45;;;;;;;;;;5134610;27;20450;-80
2022/03/10 04:19:42;;;;;;;24.33;13.68;;;;;;;;;;5081624;28;20276;-78
2022/03/10 04:22:08;;;;;;;28.50;14.07;;;;;;;;;;5061410;28;20622;-78
2022/03/10 04:24:34;;;;;;;28.23;15.48;;;;;;;;;;4920284;29;20204;-80
2022/03/10 04:27:00;;;;;;;25.80;13.80;;;;;;;;;;4892315;29;20229;-78
2022/03/10 04:29:26;;;;;;;29.20;14.68;;;;;;;;;;4811794;29;20552;-79
2022/03/10 04:33:39;;;;;;;26.85;15.05;;;;;;;;;;5187506;27;20486;-77
2022/03/10 04:36:05;;;;;;;21.65;14.48;;;;;;;;;;5170255;27;20208;-79
2022/03/10 04:38:31;;;;;;;26.40;15.33;;;;;;;;;;5191989;27;20203;-79
2022/03/10 04:40:57;;;;;;;26.98;14.90;;;;;;;;;;5191483;27;20948;-79
2022/03/10 04:43:23;;;;;;;24.30;14.17;;;;;;;;;;5124913;27;20193;-79
2022/03/10 04:45:49;;;;;;;28.35;16.08;;;;;;;;;;5086097;28;20959;-79
2022/03/10 04:48:15;;;;;;;24.85;14.00;;;;;;;;;;5103328;28;20200;-79
2022/03/10 04:50:41;;;;;;;26.17;15.13;;;;;;;;;;5119572;28;20195;-79
2022/03/10 04:53:07;;;;;;;25.50;15.00;;;;;;;;;;5082816;28;20480;-78
2022/03/10 04:55:33;;;;;;;25.02;13.55;;;;;;;;;;5023276;28;21094;-79
2022/03/10 04:59:22;;;;;;;27.73;15.85;;;;;;;;;;5192881;27;20478;-80
2022/03/10 05:01:48;;;;;;;26.65;15.07;;;;;;;;;;5167944;27;20182;-79
2022/03/10 05:04:14;;;;;;;25.23;14.17;;;;;;;;;;5192176;27;20197;-78
2022/03/10 05:06:40;;;;;;;28.20;13.40;;;;;;;;;;5174161;27;20503;-78
2022/03/10 05:09:06;;;;;;;25.13;14.57;;;;;;;;;;5065939;28;20197;-79
2022/03/10 05:11:32;;;;;;;21.98;13.63;;;;;;;;;;5066248;28;20195;-79
2022/03/10 05:13:58;;;;;;;25.00;15.20;;;;;;;;;;5084471;28;20621;-78
2022/03/10 05:16:24;;;;;;;30.70;15.27;;;;;;;;;;5090649;28;20444;-79
2022/03/10 05:18:50;;;;;;;25.93;14.50;;;;;;;;;;5048737;28;20487;-79
2022/03/10 05:21:16;;;;;;;27.85;15.77;;;;;;;;;;5043213;28;26116;-78
2022/03/10 05:24:49;;;;;;;27.63;14.18;;;;;;;;;;5192907;27;20326;-78
2022/03/10 05:27:15;;;;;;;30.40;14.90;;;;;;;;;;5150940;27;20220;-77
2022/03/10 05:29:41;;;;;;;24.05;14.50;;;;;;;;;;5191919;27;20584;-80
2022/03/10 05:32:17;;;;;;;23.92;13.65;;;;;;;;;;5190194;27;20554;-79
2022/03/10 05:34:43;;;;;;;24.60;14.85;;;;;;;;;;5127823;27;20266;-79
2022/03/10 05:37:09;;;;;;;25.70;13.67;;;;;;;;;;5145513;27;20256;-79
2022/03/10 05:39:35;;;;;;;33.83;14.25;;;;;;;;;;5147952;27;20427;-78
2022/03/10 05:42:01;;;;;;;36.47;15.65;;;;;;;;;;5143146;27;20186;-79
2022/03/10 05:44:27;;;;;;;34.30;15.50;;;;;;;;;;5089215;27;21338;-78
2022/03/10 05:50:16;;;;;;;29.55;14.35;;;;;;;;;;5192947;27;20484;-79
2022/03/10 05:52:42;;;;;;;31.30;15.05;;;;;;;;;;5187535;27;20207;-78
2022/03/10 05:55:08;;;;;;;23.80;13.35;;;;;;;;;;5179395;27;20567;-79
2022/03/10 05:57:34;;;;;;;23.25;13.77;;;;;;;;;;5152559;27;20210;-79
2022/03/10 06:00:00;;;;;;;23.33;11.37;;;;;;;;;;5124585;28;20307;-79
2022/03/10 06:02:26;;;;;;;27.58;14.18;;;;;;;;;;5091542;28;20437;-80
2022/03/10 06:04:52;;;;;;;23.50;12.83;;;;;;;;;;5086945;28;20202;-79
2022/03/10 06:07:18;;;;;;;29.15;14.63;;;;;;;;;;5043638;28;20557;-79
2022/03/10 06:09:44;;;;;;;20.80;11.57;;;;;;;;;;5015244;28;20673;-79
2022/03/10 06:15:14;;;;;;;19.65;13.27;;;;;;;;;;5192026;27;20492;-79
2022/03/10 06:17:40;;;;;;;20.70;12.40;;;;;;;;;;5168523;27;20665;-78
2022/03/10 06:20:06;;;;;;;21.87;11.97;;;;;;;;;;5170968;27;20495;-78
2022/03/10 06:22:33;;;;;;;21.23;11.43;;;;;;;;;;5147709;27;20468;-78
2022/03/10 06:24:59;;;;;;;19.27;11.82;;;;;;;;;;5095493;28;20241;-79
2022/03/10 06:27:25;;;;;;;21.35;11.75;;;;;;;;;;5101137;28;20222;-79
2022/03/10 06:29:52;;;;;;;16.90;10.90;;;;;;;;;;5110498;28;20189;-79
2022/03/10 06:32:19;;;;;;;20.77;12.05;;;;;;;;;;5015124;28;20195;-79
2022/03/10 06:34:45;;;;;;;24.58;12.82;;;;;;;;;;4954567;28;20839;-79
2022/03/10 06:39:48;;;;;;;23.55;13.88;;;;;;;;;;5192864;27;21024;-78
2022/03/10 06:42:14;;;;;;;29.77;12.50;;;;;;;;;;5187690;27;20190;-79
2022/03/10 06:44:40;;;;;;;23.33;11.60;;;;;;;;;;5192150;27;20186;-79
2022/03/10 06:47:08;;;;;;;20.93;11.93;;;;;;;;;;5176654;27;20233;-78
2022/03/10 06:49:34;;;;;;;22.67;10.82;;;;;;;;;;5090957;28;20466;-79
2022/03/10 06:52:01;;;;;;;23.00;12.93;;;;;;;;;;5044635;28;20242;-78
2022/03/10 06:54:27;;;;;;;20.15;13.80;;;;;;;;;;5079144;28;20943;-78
2022/03/10 06:56:53;;;;;;;22.63;12.85;;;;;;;;;;5089846;28;20224;-79
2022/03/10 06:59:19;;;;;;;20.30;11.20;;;;;;;;;;5044434;28;20750;-78
2022/03/10 07:01:45;;;;;;;18.05;12.13;;;;;;;;;;4992376;28;20194;-79
2022/03/10 07:05:44;;;;;;;23.38;12.02;;;;;;;;;;5190433;27;20482;-79
2022/03/10 07:08:11;;;;;;;23.52;12.55;;;;;;;;;;5187855;27;20248;-78
2022/03/10 07:10:37;;;;;;;21.85;11.98;;;;;;;;;;5191419;27;20278;-78
2022/03/10 07:13:03;;;;;;;21.67;12.23;;;;;;;;;;5157087;27;20201;-79
2022/03/10 07:15:29;;;;;;;23.00;13.10;;;;;;;;;;5125658;28;20200;-79
2022/03/10 07:17:55;;;;;;;24.17;14.48;;;;;;;;;;5132896;27;20203;-78
2022/03/10 07:20:21;;;;;;;19.60;12.90;;;;;;;;;;5139972;27;20596;-78
2022/03/10 07:22:47;;;;;;;25.30;13.45;;;;;;;;;;5079626;28;20598;-78
2022/03/10 07:25:14;;;;;;;21.20;13.20;;;;;;;;;;4951527;28;20229;-78
2022/03/10 07:29:42;;;;;;;19.75;12.60;;;;;;;;;;5193039;27;20469;-79
2022/03/10 07:32:08;;;;;;;24.33;12.57;;;;;;;;;;5187269;27;20258;-79
2022/03/10 07:34:34;;;;;;;23.45;14.20;;;;;;;;;;5187838;27;20177;-78
2022/03/10 07:37:00;;;;;;;28.23;13.57;;;;;;;;;;5152972;27;20213;-79
2022/03/10 07:39:26;;;;;;;25.38;14.73;;;;;;;;;;5091385;28;20273;-78
2022/03/10 07:41:53;;;;;;;28.47;13.50;;;;;;;;;;5096949;28;20201;-79
2022/03/10 07:44:19;;;;;;;24.83;13.95;;;;;;;;;;5084631;28;20436;-78
2022/03/10 07:46:45;;;;;;;22.65;13.15;;;;;;;;;;5058403;28;20222;-78
2022/03/10 07:49:11;;;;;;;28.58;13.25;;;;;;;;;;4836524;28;20228;-78
2022/03/10 07:54:15;;;;;;;26.42;14.52;;;;;;;;;;5196382;27;20489;-79
2022/03/10 07:56:41;;;;;;;25.33;14.20;;;;;;;;;;5176858;27;20210;-80
2022/03/10 07:59:07;;;;;;;24.00;15.07;;;;;;;;;;5154404;27;20242;-78
2022/03/10 08:01:33;;;;;;;25.85;15.23;;;;;;;;;;5169120;27;20906;-79
2022/03/10 08:03:59;;;;;;;27.70;15.17;;;;;;;;;;5138598;27;20195;-79
2022/03/10 08:06:27;;;;;;;29.80;15.02;;;;;;;;;;5131747;27;20874;-79
2022/03/10 08:08:53;;;;;;;28.25;14.80;;;;;;;;;;5084453;28;20245;-82
2022/03/10 08:11:19;;;;;;;29.70;14.40;;;;;;;;;;5026206;28;20201;-79
2022/03/10 08:13:45;;;;;;;25.02;13.98;;;;;;;;;;4888048;28;20219;-79
2022/03/10 08:18:49;;;;;;;26.15;15.07;;;;;;;;;;5179849;27;21007;-78
2022/03/10 08:21:15;;;;;;;21.83;13.98;;;;;;;;;;5187534;27;20195;-79
2022/03/10 08:23:42;;;;;;;25.15;14.75;;;;;;;;;;5193455;27;20632;-78
2022/03/10 08:26:08;;;;;;;26.63;16.75;;;;;;;;;;5206331;27;20661;-78
2022/03/10 08:28:34;;;;;;;22.17;15.68;;;;;;;;;;5128996;27;20191;-78
2022/03/10 08:31:02;;;;;;;25.30;16.38;;;;;;;;;;5124070;27;20625;-79
2022/03/10 08:33:28;;;;;;;23.30;13.15;;;;;;;;;;5134755;27;20556;-79
2022/03/10 08:35:54;;;;;;;21.83;13.57;;;;;;;;;;5095261;27;20223;-79
2022/03/10 08:38:20;;;;;;;25.60;14.60;;;;;;;;;;5109492;28;20223;-79
2022/03/10 08:43:32;;;;;;;20.58;15.40;;;;;;;;;;5193126;27;20489;-79
2022/03/10 08:46:01;;;;;;;22.65;15.13;;;;;;;;;;5183234;27;20301;-79
2022/03/10 08:48:27;;;;;;;24.52;15.05;;;;;;;;;;5151935;27;20722;-79
2022/03/10 08:50:53;;;;;;;26.77;14.13;;;;;;;;;;5138977;27;20190;-79
2022/03/10 08:53:19;;;;;;;21.83;13.52;;;;;;;;;;5127201;27;20432;-79
2022/03/10 08:55:45;;;;;;;29.20;14.80;;;;;;;;;;5067737;28;20267;-79
2022/03/10 08:58:11;;;;;;;21.98;14.40;;;;;;;;;;5054428;28;20197;-78
2022/03/10 09:00:37;;;;;;;22.40;13.90;;;;;;;;;;5055119;28;20207;-78
2022/03/10 09:05:57;;;;;;;24.08;15.77;;;;;;;;;;5188639;27;20506;-79
2022/03/10 09:08:23;;;;;;;28.25;15.90;;;;;;;;;;5187537;27;20193;-79
2022/03/10 09:10:49;;;;;;;23.67;15.20;;;;;;;;;;5192002;27;20188;-79
2022/03/10 09:13:15;;;;;;;25.00;14.90;;;;;;;;;;5160570;27;20639;-79
2022/03/10 09:15:45;;;;;;;26.00;15.35;;;;;;;;;;5102862;28;20938;-80
2022/03/10 09:18:11;;;;;;;24.83;14.63;;;;;;;;;;5091116;28;20205;-79
2022/03/10 09:20:38;;;;;;;23.17;13.70;;;;;;;;;;5084721;28;20226;-79
2022/03/10 09:23:04;;;;;;;22.37;15.80;;;;;;;;;;5074787;28;20430;-79
2022/03/10 09:25:30;;;;;;;22.47;15.70;;;;;;;;;;5057786;28;20480;-79
2022/03/10 09:29:12;;;;;;;20.57;14.57;;;;;;;;;;5183881;27;20467;-79
2022/03/10 09:31:38;;;;;;;24.73;15.70;;;;;;;;;;5187382;27;20411;-79
2022/03/10 09:34:04;;;;;;;17.13;14.27;;;;;;;;;;5192287;27;20421;-80
2022/03/10 09:36:31;;;;;;;23.07;15.83;;;;;;;;;;5178049;27;20440;-77
2022/03/10 09:38:57;;;;;;;27.53;16.17;;;;;;;;;;5092763;28;20418;-78
2022/03/10 09:41:23;;;;;;;23.77;15.77;;;;;;;;;;5058508;28;20488;-80
2022/03/10 09:43:49;;;;;;;23.93;15.73;;;;;;;;;;5077340;28;20489;-79
2022/03/10 09:46:16;;;;;;;25.37;16.30;;;;;;;;;;5075992;28;20609;-79
2022/03/10 09:48:42;;;;;;;28.87;17.13;;;;;;;;;;4878594;28;20488;-79
2022/03/10 09:53:55;;;;;;;20.07;15.37;;;;;;;;;;5192989;27;20508;-77
2022/03/10 09:56:22;;;;;;;24.17;17.00;;;;;;;;;;5179823;27;20443;-76
2022/03/10 09:58:48;;;;;;;22.47;15.20;;;;;;;;;;5170718;27;20434;-78
2022/03/10 10:01:14;;;;;;;21.07;15.10;;;;;;;;;;5170357;27;20510;-76
2022/03/10 10:03:40;;;;;;;22.60;17.50;;;;;;;;;;5123510;27;20485;-76
2022/03/10 10:06:06;;;;;;;19.07;14.70;;;;;;;;;;5064687;28;20856;-76
2022/03/10 10:08:34;;;;;;;23.17;15.53;;;;;;;;;;5014770;28;20528;-76
2022/03/10 10:11:01;;;;;;;22.77;16.13;;;;;;;;;;5015551;28;20847;-76
2022/03/10 10:13:34;;;;;;;23.97;17.27;;;;;;;;;;4950207;28;20493;-77
2022/03/10 10:18:40;;;;;;;19.90;16.23;;;;;;;;;;5192838;27;20493;-78
2022/03/10 10:21:07;;;;;;;20.70;15.80;;;;;;;;;;5187717;27;20419;-77
2022/03/10 10:23:34;;;;;;;19.20;15.97;;;;;;;;;;5192122;27;20978;-77
2022/03/10 10:26:01;;;;;;;23.97;17.53;;;;;;;;;;5186253;27;20450;-77
2022/03/10 10:28:31;;;;;;;22.40;17.43;;;;;;;;;;5146194;27;20425;-78
2022/03/10 10:30:57;;;;;;;20.17;16.50;;;;;;;;;;5089882;28;20436;-77
2022/03/10 10:33:23;;;;;;;22.57;15.90;;;;;;;;;;4987280;28;20438;-76
2022/03/10 10:35:49;;;;;;;23.23;18.33;;;;;;;;;;4978191;28;20514;-77
2022/03/10 10:38:31;;;;;;;25.17;16.30;;;;;;;;;;4918636;28;20583;-77
2022/03/10 10:43:07;;;;;;;19.97;16.03;;;;;;;;;;5192704;27;20496;-77
2022/03/10 10:45:34;;;;;;;23.17;17.67;;;;;;;;;;5187127;27;20834;-77
2022/03/10 10:48:02;;;;;;;23.57;17.17;;;;;;;;;;5170967;27;20426;-77
2022/03/10 10:50:29;;;;;;;21.53;16.90;;;;;;;;;;5170393;27;20523;-76
2022/03/10 10:52:56;;;;;;;24.43;15.93;;;;;;;;;;5149601;27;20936;-76
2022/03/10 10:55:30;;;;;;;22.20;18.43;;;;;;;;;;5116079;28;20444;-77
2022/03/10 10:57:56;;;;;;;26.57;18.47;;;;;;;;;;5075885;28;20460;-78
2022/03/10 11:00:22;;;;;;;24.03;18.50;;;;;;;;;;5075283;28;20931;-78
2022/03/10 11:02:50;;;;;;;22.77;18.63;;;;;;;;;;4965161;28;21062;-76
2022/03/10 11:07:49;;;;;;;24.33;16.67;;;;;;;;;;5172434;27;20309;-77
2022/03/10 11:10:15;;;;;;;24.87;18.17;;;;;;;;;;5187800;27;20902;-77
2022/03/10 11:12:41;;;;;;;22.60;17.70;;;;;;;;;;5192309;27;20414;-76
2022/03/10 11:15:08;;;;;;;21.40;17.17;;;;;;;;;;5163899;27;20462;-76
2022/03/10 11:17:35;;;;;;;18.63;15.00;;;;;;;;;;5129725;27;20440;-76
2022/03/10 11:20:02;;;;;;;26.23;17.00;;;;;;;;;;5133714;27;20427;-77
2022/03/10 11:22:28;;;;;;;21.57;16.47;;;;;;;;;;5166501;27;20455;-77
2022/03/10 11:24:54;;;;;;;20.93;16.80;;;;;;;;;;5152133;27;20448;-78
2022/03/10 11:27:23;;;;;;;22.90;17.23;;;;;;;;;;5101933;27;20511;-77
2022/03/10 11:32:30;;;;;;;22.87;16.20;;;;;;;;;;5192682;27;20486;-76
2022/03/10 11:34:58;;;;;;;18.33;14.90;;;;;;;;;;5187784;27;20422;-76
2022/03/10 11:37:45;;;;;;;18.00;14.57;;;;;;;;;;5174743;27;20443;-77
2022/03/10 11:40:12;;;;;;;16.47;14.60;;;;;;;;;;5141859;27;20421;-77
2022/03/10 11:42:38;;;;;;;17.20;14.10;;;;;;;;;;5105226;28;20420;-77
2022/03/10 11:45:08;;;;;;;19.90;14.83;;;;;;;;;;5115088;28;20483;-78
2022/03/10 11:47:35;;;;;;;15.40;13.80;;;;;;;;;;5059179;28;20441;-77
2022/03/10 11:50:20;;;;;;;17.40;14.47;;;;;;;;;;5028032;28;20515;-77
2022/03/10 11:52:50;;;;;;;18.10;15.10;;;;;;;;;;4913423;28;20430;-77
2022/03/10 11:57:54;;;;;;;19.27;13.73;;;;;;;;;;5171909;27;20494;-77
2022/03/10 12:00:23;;;;;;;17.37;13.40;;;;;;;;;;5187600;27;20421;-77
2022/03/10 12:02:58;;;;;;;19.23;13.20;;;;;;;;;;5191803;27;20473;-77
2022/03/10 12:05:25;;;;;;;20.40;14.60;;;;;;;;;;5141649;27;20769;-77
2022/03/10 12:07:52;;;;;;;19.87;15.30;;;;;;;;;;5071315;28;20948;-77
2022/03/10 12:10:19;;;;;;;20.50;16.90;;;;;;;;;;5061086;28;20438;-78
2022/03/10 12:12:46;;;;;;;23.70;15.73;;;;;;;;;;4992386;28;20791;-78
2022/03/10 12:15:26;;;;;;;19.03;16.57;;;;;;;;;;4901460;28;20921;-77
2022/03/10 12:17:54;;;;;;;20.37;16.77;;;;;;;;;;4812318;29;20465;-78
2022/03/10 12:22:29;;;;;;;16.50;14.63;;;;;;;;;;5193267;27;20986;-76
2022/03/10 12:25:14;;;;;;;20.73;15.47;;;;;;;;;;5152691;27;20505;-76
2022/03/10 12:27:50;;;;;;;18.03;15.00;;;;;;;;;;5156331;27;20457;-77
2022/03/10 12:30:19;;;;;;;19.70;15.83;;;;;;;;;;5146080;27;20433;-76
2022/03/10 12:32:45;;;;;;;19.00;14.77;;;;;;;;;;5121867;27;20425;-74
2022/03/10 12:35:12;;;;;;;20.40;14.73;;;;;;;;;;5107659;28;20793;-75
2022/03/10 12:37:38;;;;;;;17.40;14.10;;;;;;;;;;5075738;28;20471;-75
2022/03/10 12:40:04;;;;;;;23.73;14.97;;;;;;;;;;5021578;28;20430;-75
2022/03/10 12:42:33;;;;;;;18.73;14.40;;;;;;;;;;4981777;28;20489;-76
2022/03/10 12:47:07;;;;;;;16.00;13.10;;;;;;;;;;5178997;27;20488;-74
2022/03/10 12:49:37;;;;;;;15.33;13.27;;;;;;;;;;5188282;27;20957;-75
2022/03/10 12:52:11;;;;;;;15.73;13.63;;;;;;;;;;5168874;27;20426;-74
2022/03/10 12:54:37;;;;;;;18.53;14.20;;;;;;;;;;5147341;27;20421;-75
2022/03/10 12:57:05;;;;;;;17.43;14.23;;;;;;;;;;5138165;27;20448;-75
2022/03/10 12:59:36;;;;;;;18.00;15.33;;;;;;;;;;5144748;27;20471;-75
2022/03/10 13:02:16;;;;;;;17.67;14.00;;;;;;;;;;5128858;27;20421;-74
2022/03/10 13:05:00;;;;;;;18.60;14.30;;;;;;;;;;4944077;28;20496;-74
2022/03/10 13:07:28;;;;;;;16.43;12.30;;;;;;;;;;4844626;29;20465;-78
2022/03/10 13:12:30;;;;;;;17.00;13.00;;;;;;;;;;5193043;27;20650;-76
2022/03/10 13:14:57;;;;;;;19.10;13.43;;;;;;;;;;5168728;27;20499;-76
2022/03/10 13:17:36;;;;;;;20.07;12.63;;;;;;;;;;5175174;27;20819;-78
2022/03/10 13:20:09;;;;;;;14.33;11.70;;;;;;;;;;5149710;27;20420;-77
2022/03/10 13:22:35;;;;;;;13.50;12.10;;;;;;;;;;5070204;28;20485;-76
2022/03/10 13:25:01;;;;;;;15.73;12.20;;;;;;;;;;5047854;28;20935;-76
2022/03/10 13:27:28;;;;;;;14.67;11.93;;;;;;;;;;5063408;28;20454;-77
2022/03/10 13:29:55;;;;;;;13.83;10.83;;;;;;;;;;5057671;28;20439;-77
2022/03/10 13:32:23;;;;;;;16.03;11.80;;;;;;;;;;5011558;28;20481;-76
2022/03/10 13:37:11;;;;;;;11.40;9.20;;;;;;;;;;5177971;27;20308;-77
2022/03/10 13:39:37;;;;;;;15.90;10.47;;;;;;;;;;5187771;27;20443;-79
2022/03/10 13:42:09;;;;;;;15.33;9.67;;;;;;;;;;5192219;27;20429;-77
2022/03/10 13:44:35;;;;;;;13.27;9.40;;;;;;;;;;5166779;27;20425;-78
2022/03/10 13:47:05;;;;;;;10.37;8.90;;;;;;;;;;5143402;27;20527;-79
2022/03/10 13:49:32;;;;;;;9.73;8.63;;;;;;;;;;5133009;27;20426;-78
2022/03/10 13:51:58;;;;;;;13.53;8.53;;;;;;;;;;5117620;27;20425;-77
2022/03/10 13:54:27;;;;;;;12.67;9.33;;;;;;;;;;5042485;28;20959;-77
2022/03/10 13:56:54;;;;;;;9.80;8.47;;;;;;;;;;4938031;28;20564;-78
2022/03/10 14:01:58;;;;;;;8.80;7.90;;;;;;;;;;5192898;27;20489;-77
2022/03/10 14:04:24;;;;;;;9.83;8.50;;;;;;;;;;5170561;27;20438;-77
2022/03/10 14:06:51;;;;;;;9.90;7.90;;;;;;;;;;5180054;27;20806;-77
2022/03/10 14:09:18;;;;;;;11.80;7.37;;;;;;;;;;5151611;27;20522;-76
2022/03/10 14:11:45;;;;;;;8.90;7.53;;;;;;;;;;5161382;27;20940;-77
2022/03/10 14:14:11;;;;;;;9.63;6.57;;;;;;;;;;5163991;27;20510;-77
2022/03/10 14:16:37;;;;;;;7.23;6.53;;;;;;;;;;5140464;27;20457;-79
2022/03/10 14:19:03;;;;;;;7.53;6.43;;;;;;;;;;5120572;28;20427;-75
2022/03/10 14:21:30;;;;;;;6.17;5.57;;;;;;;;;;5058379;28;20503;-78
2022/03/10 14:26:24;;;;;;;7.00;6.30;;;;;;;;;;5184737;27;20701;-75
2022/03/10 14:28:51;;;;;;;6.90;6.17;;;;;;;;;;5185443;27;20422;-75
2022/03/10 14:31:23;;;;;;;5.40;4.77;;;;;;;;;;5189465;27;20478;-75
2022/03/10 14:33:50;;;;;;;8.83;5.93;;;;;;;;;;5179851;27;20901;-75
2022/03/10 14:36:20;;;;;;;6.63;5.80;;;;;;;;;;5180910;27;20449;-75
2022/03/10 14:38:47;;;;;;;13.50;6.27;;;;;;;;;;5185487;27;20411;-76
2022/03/10 14:41:20;;;;;;;6.93;5.30;;;;;;;;;;5187010;27;20817;-74
2022/03/10 14:43:46;;;;;;;7.90;6.07;;;;;;;;;;5095884;27;20411;-76
2022/03/10 14:46:12;;;;;;;6.27;5.00;;;;;;;;;;5013339;28;21004;-75
2022/03/10 14:51:16;;;;;;;8.37;6.57;;;;;;;;;;5192770;27;20493;-75
2022/03/10 14:53:42;;;;;;;6.63;5.87;;;;;;;;;;5187705;27;20982;-75
2022/03/10 14:56:09;;;;;;;5.93;5.17;;;;;;;;;;5186399;27;20447;-76
2022/03/10 14:58:36;;;;;;;9.43;5.10;;;;;;;;;;5144069;27;20948;-76
2022/03/10 15:01:02;;;;;;;7.13;5.67;;;;;;;;;;5116840;28;20430;-75
2022/03/10 15:03:28;;;;;;;6.40;5.50;;;;;;;;;;5125772;27;20432;-75
2022/03/10 15:05:54;;;;;;;8.20;5.23;;;;;;;;;;5111965;28;20450;-75
2022/03/10 15:08:20;;;;;;;7.23;4.87;;;;;;;;;;5083684;28;20783;-75
2022/03/10 15:10:46;;;;;;;5.50;4.50;;;;;;;;;;4939992;28;20476;-75
2022/03/10 15:13:12;;;;;;;6.67;5.17;;;;;;;;;;4974190;28;20939;-75
2022/03/10 15:17:28;;;;;;;6.17;5.57;;;;;;;;;;5175767;27;20506;-73
2022/03/10 15:19:54;;;;;;;6.90;5.60;;;;;;;;;;5187800;27;20414;-74
2022/03/10 15:22:21;;;;;;;5.57;4.10;;;;;;;;;;5192075;27;20414;-73
2022/03/10 15:24:47;;;;;;;8.80;4.23;;;;;;;;;;5191075;27;20429;-74
2022/03/10 15:27:13;;;;;;;6.23;4.37;;;;;;;;;;5182027;27;20769;-73
2022/03/10 15:29:39;;;;;;;6.27;3.90;;;;;;;;;;5172851;27;20523;-75
2022/03/10 15:32:19;;;;;;;4.13;3.57;;;;;;;;;;5091681;27;20424;-76
2022/03/10 15:34:45;;;;;;;3.80;3.07;;;;;;;;;;4973264;28;20435;-73
2022/03/10 15:37:10;;;;;;;6.20;3.03;;;;;;;;;;4968896;28;20475;-75
2022/03/10 15:39:37;;;;;;;4.03;2.43;;;;;;;;;;4912433;28;22545;-74
2022/03/10 15:43:09;;;;;;;5.60;2.43;;;;;;;;;;5193111;27;20481;-75
2022/03/10 15:45:35;;;;;;;1.83;1.53;;;;;;;;;;5186441;27;20538;-77
2022/03/10 15:48:01;;;;;;;4.50;2.10;;;;;;;;;;5151350;27;20820;-75
2022/03/10 15:50:30;;;;;;;2.90;2.33;;;;;;;;;;5154897;27;20434;-74
2022/03/10 15:52:56;;;;;;;1.90;1.70;;;;;;;;;;5089707;28;20519;-75
2022/03/10 15:55:22;;;;;;;2.80;1.63;;;;;;;;;;5060290;28;20431;-76
2022/03/10 15:57:48;;;;;;;3.23;1.60;;;;;;;;;;5074582;28;20458;-75